sensor_id;sensor_type;location;lat;lon;timestamp;P1;durP1;ratioP1;P2;durP2;ratioP2
12535;SDS011;6334;48.696;2.114;2023-03-14T00:00:21;7.30;;;2.57;;
12535;SDS011;6334;48.696;2.114;2023-03-14T00:02:52;9.67;;;2.60;;
12535;SDS011;6334;48.696;2.114;2023-03-14T00:05:21;5.43;;;2.57;;
12535;SDS011;6334;48.696;2.114;2023-03-14T00:07:52;9.37;;;3.10;;
12535;SDS011;6334;48.696;2.114;2023-03-14T00:10:24;9.27;;;2.83;;
12535;SDS011;6334;48.696;2.114;2023-03-14T00:12:54;7.60;;;2.60;;
12535;SDS011;6334;48.696;2.114;2023-03-14T00:15:25;3.80;;;1.67;;
12535;SDS011;6334;48.696;2.114;2023-03-14T00:17:55;7.80;;;2.63;;
12535;SDS011;6334;48.696;2.114;2023-03-14T00:20:26;5.67;;;2.33;;
12535;SDS011;6334;48.696;2.114;2023-03-14T00:22:56;8.10;;;2.70;;
12535;SDS011;6334;48.696;2.114;2023-03-14T00:25:26;7.97;;;2.60;;
12535;SDS011;6334;48.696;2.114;2023-03-14T00:27:57;8.83;;;2.67;;
12535;SDS011;6334;48.696;2.114;2023-03-14T00:30:27;8.90;;;3.13;;
12535;SDS011;6334;48.696;2.114;2023-03-14T00:32:58;7.17;;;2.50;;
12535;SDS011;6334;48.696;2.114;2023-03-14T00:35:28;8.90;;;2.43;;
12535;SDS011;6334;48.696;2.114;2023-03-14T00:37:59;7.17;;;2.77;;
12535;SDS011;6334;48.696;2.114;2023-03-14T00:40:29;6.73;;;2.77;;
12535;SDS011;6334;48.696;2.114;2023-03-14T00:43:00;11.93;;;2.60;;
12535;SDS011;6334;48.696;2.114;2023-03-14T00:45:30;12.13;;;3.63;;
12535;SDS011;6334;48.696;2.114;2023-03-14T00:48:00;8.83;;;3.37;;
12535;SDS011;6334;48.696;2.114;2023-03-14T00:50:31;8.67;;;2.90;;
12535;SDS011;6334;48.696;2.114;2023-03-14T00:53:01;7.70;;;2.70;;
12535;SDS011;6334;48.696;2.114;2023-03-14T00:55:35;9.40;;;3.00;;
12535;SDS011;6334;48.696;2.114;2023-03-14T00:58:02;11.00;;;3.43;;
12535;SDS011;6334;48.696;2.114;2023-03-14T01:00:33;10.13;;;3.37;;
12535;SDS011;6334;48.696;2.114;2023-03-14T01:03:04;10.73;;;3.10;;
12535;SDS011;6334;48.696;2.114;2023-03-14T01:05:34;10.73;;;3.70;;
12535;SDS011;6334;48.696;2.114;2023-03-14T01:08:06;10.33;;;3.00;;
12535;SDS011;6334;48.696;2.114;2023-03-14T01:10:39;9.63;;;3.57;;
12535;SDS011;6334;48.696;2.114;2023-03-14T01:13:09;8.60;;;3.30;;
12535;SDS011;6334;48.696;2.114;2023-03-14T01:15:40;9.23;;;3.17;;
12535;SDS011;6334;48.696;2.114;2023-03-14T01:18:10;4.60;;;2.63;;
12535;SDS011;6334;48.696;2.114;2023-03-14T01:20:41;12.73;;;4.07;;
12535;SDS011;6334;48.696;2.114;2023-03-14T01:23:11;5.70;;;2.43;;
12535;SDS011;6334;48.696;2.114;2023-03-14T01:25:42;9.40;;;3.00;;
12535;SDS011;6334;48.696;2.114;2023-03-14T01:28:12;8.50;;;3.27;;
12535;SDS011;6334;48.696;2.114;2023-03-14T01:30:43;7.37;;;2.60;;
12535;SDS011;6334;48.696;2.114;2023-03-14T01:33:13;5.87;;;2.57;;
12535;SDS011;6334;48.696;2.114;2023-03-14T01:35:44;9.67;;;3.20;;
12535;SDS011;6334;48.696;2.114;2023-03-14T01:38:14;5.23;;;2.67;;
12535;SDS011;6334;48.696;2.114;2023-03-14T01:40:44;6.53;;;2.60;;
12535;SDS011;6334;48.696;2.114;2023-03-14T01:43:16;6.07;;;2.93;;
12535;SDS011;6334;48.696;2.114;2023-03-14T01:48:36;7.07;;;2.33;;
12535;SDS011;6334;48.696;2.114;2023-03-14T01:51:06;6.10;;;2.30;;
12535;SDS011;6334;48.696;2.114;2023-03-14T01:53:40;3.07;;;1.23;;
12535;SDS011;6334;48.696;2.114;2023-03-14T01:56:11;6.93;;;2.60;;
12535;SDS011;6334;48.696;2.114;2023-03-14T01:58:41;4.37;;;2.03;;
12535;SDS011;6334;48.696;2.114;2023-03-14T02:01:12;4.10;;;2.07;;
12535;SDS011;6334;48.696;2.114;2023-03-14T02:03:47;6.40;;;1.97;;
12535;SDS011;6334;48.696;2.114;2023-03-14T02:06:17;3.47;;;1.73;;
12535;SDS011;6334;48.696;2.114;2023-03-14T02:08:47;6.70;;;2.33;;
12535;SDS011;6334;48.696;2.114;2023-03-14T02:11:17;4.67;;;2.07;;
12535;SDS011;6334;48.696;2.114;2023-03-14T02:13:47;4.83;;;1.63;;
12535;SDS011;6334;48.696;2.114;2023-03-14T02:16:18;2.73;;;1.30;;
12535;SDS011;6334;48.696;2.114;2023-03-14T02:18:48;3.33;;;1.57;;
12535;SDS011;6334;48.696;2.114;2023-03-14T02:24:15;4.40;;;1.73;;
12535;SDS011;6334;48.696;2.114;2023-03-14T02:27:00;4.37;;;1.83;;
12535;SDS011;6334;48.696;2.114;2023-03-14T02:29:14;4.50;;;1.87;;
12535;SDS011;6334;48.696;2.114;2023-03-14T02:31:44;3.57;;;1.67;;
12535;SDS011;6334;48.696;2.114;2023-03-14T02:34:15;5.37;;;1.83;;
12535;SDS011;6334;48.696;2.114;2023-03-14T02:36:45;9.80;;;2.00;;
12535;SDS011;6334;48.696;2.114;2023-03-14T02:39:19;5.53;;;2.00;;
12535;SDS011;6334;48.696;2.114;2023-03-14T02:41:49;2.33;;;1.40;;
12535;SDS011;6334;48.696;2.114;2023-03-14T02:44:20;2.10;;;1.33;;
12535;SDS011;6334;48.696;2.114;2023-03-14T02:46:50;3.47;;;1.80;;
12535;SDS011;6334;48.696;2.114;2023-03-14T02:49:20;4.93;;;2.20;;
12535;SDS011;6334;48.696;2.114;2023-03-14T02:51:51;4.30;;;1.40;;
12535;SDS011;6334;48.696;2.114;2023-03-14T02:54:21;4.80;;;1.50;;
12535;SDS011;6334;48.696;2.114;2023-03-14T02:56:52;1.77;;;1.10;;
12535;SDS011;6334;48.696;2.114;2023-03-14T02:59:24;4.30;;;1.33;;
12535;SDS011;6334;48.696;2.114;2023-03-14T03:01:54;3.43;;;0.63;;
12535;SDS011;6334;48.696;2.114;2023-03-14T03:04:24;4.63;;;1.37;;
12535;SDS011;6334;48.696;2.114;2023-03-14T03:06:56;3.80;;;1.33;;
12535;SDS011;6334;48.696;2.114;2023-03-14T03:09:27;2.27;;;1.23;;
12535;SDS011;6334;48.696;2.114;2023-03-14T03:11:57;1.70;;;1.07;;
12535;SDS011;6334;48.696;2.114;2023-03-14T03:14:28;1.43;;;1.10;;
12535;SDS011;6334;48.696;2.114;2023-03-14T03:16:58;1.40;;;1.20;;
12535;SDS011;6334;48.696;2.114;2023-03-14T03:19:28;1.33;;;0.87;;
12535;SDS011;6334;48.696;2.114;2023-03-14T03:21:59;1.67;;;0.87;;
12535;SDS011;6334;48.696;2.114;2023-03-14T03:24:29;1.53;;;1.20;;
12535;SDS011;6334;48.696;2.114;2023-03-14T03:27:00;1.17;;;1.07;;
12535;SDS011;6334;48.696;2.114;2023-03-14T03:29:30;2.70;;;1.23;;
12535;SDS011;6334;48.696;2.114;2023-03-14T03:32:01;1.90;;;0.83;;
12535;SDS011;6334;48.696;2.114;2023-03-14T03:34:31;4.83;;;1.27;;
12535;SDS011;6334;48.696;2.114;2023-03-14T03:37:02;1.80;;;0.87;;
12535;SDS011;6334;48.696;2.114;2023-03-14T03:39:32;2.63;;;1.37;;
12535;SDS011;6334;48.696;2.114;2023-03-14T03:42:03;3.87;;;1.10;;
12535;SDS011;6334;48.696;2.114;2023-03-14T03:44:33;1.77;;;1.10;;
12535;SDS011;6334;48.696;2.114;2023-03-14T03:47:03;2.20;;;1.17;;
12535;SDS011;6334;48.696;2.114;2023-03-14T03:49:34;2.17;;;1.07;;
12535;SDS011;6334;48.696;2.114;2023-03-14T03:52:04;1.67;;;1.13;;
12535;SDS011;6334;48.696;2.114;2023-03-14T03:54:35;0.93;;;0.87;;
12535;SDS011;6334;48.696;2.114;2023-03-14T03:57:05;1.57;;;1.10;;
12535;SDS011;6334;48.696;2.114;2023-03-14T03:59:36;2.20;;;1.20;;
12535;SDS011;6334;48.696;2.114;2023-03-14T04:02:06;1.20;;;1.10;;
12535;SDS011;6334;48.696;2.114;2023-03-14T04:04:37;3.50;;;1.43;;
12535;SDS011;6334;48.696;2.114;2023-03-14T04:07:07;1.00;;;1.00;;
12535;SDS011;6334;48.696;2.114;2023-03-14T04:09:38;1.73;;;1.20;;
12535;SDS011;6334;48.696;2.114;2023-03-14T04:12:08;1.10;;;0.90;;
12535;SDS011;6334;48.696;2.114;2023-03-14T04:14:38;0.70;;;0.70;;
12535;SDS011;6334;48.696;2.114;2023-03-14T04:17:10;1.60;;;1.07;;
12535;SDS011;6334;48.696;2.114;2023-03-14T04:19:40;1.33;;;1.00;;
12535;SDS011;6334;48.696;2.114;2023-03-14T04:22:12;1.50;;;0.73;;
12535;SDS011;6334;48.696;2.114;2023-03-14T04:24:43;0.87;;;0.87;;
12535;SDS011;6334;48.696;2.114;2023-03-14T04:27:13;3.70;;;1.37;;
12535;SDS011;6334;48.696;2.114;2023-03-14T04:29:44;1.83;;;1.10;;
12535;SDS011;6334;48.696;2.114;2023-03-14T04:32:14;1.47;;;0.90;;
12535;SDS011;6334;48.696;2.114;2023-03-14T04:34:45;1.80;;;0.80;;
12535;SDS011;6334;48.696;2.114;2023-03-14T04:37:17;1.00;;;1.00;;
12535;SDS011;6334;48.696;2.114;2023-03-14T04:39:47;0.93;;;0.80;;
12535;SDS011;6334;48.696;2.114;2023-03-14T04:42:18;2.27;;;0.83;;
12535;SDS011;6334;48.696;2.114;2023-03-14T04:44:48;0.60;;;0.60;;
12535;SDS011;6334;48.696;2.114;2023-03-14T04:47:19;1.00;;;0.67;;
12535;SDS011;6334;48.696;2.114;2023-03-14T04:49:51;1.47;;;0.50;;
12535;SDS011;6334;48.696;2.114;2023-03-14T04:52:21;1.27;;;0.53;;
12535;SDS011;6334;48.696;2.114;2023-03-14T04:54:52;3.33;;;1.33;;
12535;SDS011;6334;48.696;2.114;2023-03-14T04:57:22;3.60;;;1.30;;
12535;SDS011;6334;48.696;2.114;2023-03-14T04:59:53;2.50;;;1.50;;
12535;SDS011;6334;48.696;2.114;2023-03-14T05:02:23;5.53;;;2.00;;
12535;SDS011;6334;48.696;2.114;2023-03-14T05:04:54;5.93;;;1.93;;
12535;SDS011;6334;48.696;2.114;2023-03-14T05:07:24;6.63;;;2.37;;
12535;SDS011;6334;48.696;2.114;2023-03-14T05:09:55;7.33;;;2.70;;
12535;SDS011;6334;48.696;2.114;2023-03-14T05:12:25;6.33;;;2.27;;
12535;SDS011;6334;48.696;2.114;2023-03-14T05:14:56;5.17;;;2.17;;
12535;SDS011;6334;48.696;2.114;2023-03-14T05:17:26;8.27;;;2.57;;
12535;SDS011;6334;48.696;2.114;2023-03-14T05:19:57;7.03;;;2.40;;
12535;SDS011;6334;48.696;2.114;2023-03-14T05:22:27;5.67;;;2.27;;
12535;SDS011;6334;48.696;2.114;2023-03-14T05:24:57;8.17;;;2.73;;
12535;SDS011;6334;48.696;2.114;2023-03-14T05:27:28;8.10;;;2.17;;
12535;SDS011;6334;48.696;2.114;2023-03-14T05:29:58;7.30;;;2.37;;
12535;SDS011;6334;48.696;2.114;2023-03-14T05:32:29;7.73;;;2.80;;
12535;SDS011;6334;48.696;2.114;2023-03-14T05:34:59;8.10;;;2.40;;
12535;SDS011;6334;48.696;2.114;2023-03-14T05:37:30;9.47;;;2.53;;
12535;SDS011;6334;48.696;2.114;2023-03-14T05:40:00;6.80;;;2.50;;
12535;SDS011;6334;48.696;2.114;2023-03-14T05:42:31;7.77;;;2.30;;
12535;SDS011;6334;48.696;2.114;2023-03-14T05:45:01;5.43;;;2.37;;
12535;SDS011;6334;48.696;2.114;2023-03-14T05:47:31;9.67;;;2.87;;
12535;SDS011;6334;48.696;2.114;2023-03-14T05:50:02;8.43;;;2.80;;
12535;SDS011;6334;48.696;2.114;2023-03-14T05:52:32;6.77;;;2.47;;
12535;SDS011;6334;48.696;2.114;2023-03-14T05:55:03;9.10;;;2.87;;
12535;SDS011;6334;48.696;2.114;2023-03-14T05:57:33;6.83;;;2.73;;
12535;SDS011;6334;48.696;2.114;2023-03-14T06:00:04;9.53;;;3.10;;
12535;SDS011;6334;48.696;2.114;2023-03-14T06:02:34;7.73;;;2.37;;
12535;SDS011;6334;48.696;2.114;2023-03-14T06:05:05;6.43;;;2.83;;
12535;SDS011;6334;48.696;2.114;2023-03-14T06:07:36;5.90;;;2.70;;
12535;SDS011;6334;48.696;2.114;2023-03-14T06:10:06;7.37;;;2.73;;
12535;SDS011;6334;48.696;2.114;2023-03-14T06:12:37;9.43;;;2.97;;
12535;SDS011;6334;48.696;2.114;2023-03-14T06:15:07;9.43;;;3.50;;
12535;SDS011;6334;48.696;2.114;2023-03-14T06:17:38;4.87;;;2.23;;
12535;SDS011;6334;48.696;2.114;2023-03-14T06:20:09;9.10;;;3.13;;
12535;SDS011;6334;48.696;2.114;2023-03-14T06:22:39;9.80;;;3.20;;
12535;SDS011;6334;48.696;2.114;2023-03-14T06:25:09;10.90;;;2.87;;
12535;SDS011;6334;48.696;2.114;2023-03-14T06:27:40;10.93;;;3.60;;
12535;SDS011;6334;48.696;2.114;2023-03-14T06:30:10;12.17;;;3.70;;
12535;SDS011;6334;48.696;2.114;2023-03-14T06:32:40;8.03;;;3.03;;
12535;SDS011;6334;48.696;2.114;2023-03-14T06:35:11;9.97;;;3.13;;
12535;SDS011;6334;48.696;2.114;2023-03-14T06:37:41;9.97;;;2.93;;
12535;SDS011;6334;48.696;2.114;2023-03-14T06:40:12;9.37;;;3.60;;
12535;SDS011;6334;48.696;2.114;2023-03-14T06:42:43;11.03;;;3.03;;
12535;SDS011;6334;48.696;2.114;2023-03-14T06:45:13;12.40;;;4.20;;
12535;SDS011;6334;48.696;2.114;2023-03-14T06:47:43;11.27;;;3.97;;
12535;SDS011;6334;48.696;2.114;2023-03-14T06:50:14;11.30;;;2.93;;
12535;SDS011;6334;48.696;2.114;2023-03-14T06:52:44;9.30;;;2.93;;
12535;SDS011;6334;48.696;2.114;2023-03-14T06:55:15;10.23;;;3.33;;
12535;SDS011;6334;48.696;2.114;2023-03-14T06:57:45;10.13;;;3.13;;
12535;SDS011;6334;48.696;2.114;2023-03-14T07:00:15;9.87;;;3.20;;
12535;SDS011;6334;48.696;2.114;2023-03-14T07:02:46;11.67;;;3.80;;
12535;SDS011;6334;48.696;2.114;2023-03-14T07:05:16;9.20;;;3.20;;
12535;SDS011;6334;48.696;2.114;2023-03-14T07:07:47;10.53;;;3.33;;
12535;SDS011;6334;48.696;2.114;2023-03-14T07:10:17;10.67;;;3.30;;
12535;SDS011;6334;48.696;2.114;2023-03-14T07:12:48;10.00;;;3.20;;
12535;SDS011;6334;48.696;2.114;2023-03-14T07:15:18;7.53;;;2.90;;
12535;SDS011;6334;48.696;2.114;2023-03-14T07:17:49;8.93;;;3.03;;
12535;SDS011;6334;48.696;2.114;2023-03-14T07:20:19;12.47;;;3.87;;
12535;SDS011;6334;48.696;2.114;2023-03-14T07:22:50;6.80;;;2.83;;
12535;SDS011;6334;48.696;2.114;2023-03-14T07:25:20;10.40;;;2.87;;
12535;SDS011;6334;48.696;2.114;2023-03-14T07:27:51;11.60;;;3.47;;
12535;SDS011;6334;48.696;2.114;2023-03-14T07:30:21;10.63;;;2.70;;
12535;SDS011;6334;48.696;2.114;2023-03-14T07:32:53;7.77;;;3.00;;
12535;SDS011;6334;48.696;2.114;2023-03-14T07:35:23;10.80;;;2.97;;
12535;SDS011;6334;48.696;2.114;2023-03-14T07:37:53;9.10;;;2.87;;
12535;SDS011;6334;48.696;2.114;2023-03-14T07:40:24;10.90;;;2.80;;
12535;SDS011;6334;48.696;2.114;2023-03-14T07:42:54;9.60;;;2.63;;
12535;SDS011;6334;48.696;2.114;2023-03-14T07:45:25;8.57;;;3.30;;
12535;SDS011;6334;48.696;2.114;2023-03-14T07:47:55;8.70;;;3.13;;
12535;SDS011;6334;48.696;2.114;2023-03-14T07:50:26;6.43;;;3.00;;
12535;SDS011;6334;48.696;2.114;2023-03-14T07:52:56;5.10;;;2.83;;
12535;SDS011;6334;48.696;2.114;2023-03-14T07:55:27;5.80;;;2.77;;
12535;SDS011;6334;48.696;2.114;2023-03-14T07:57:57;7.60;;;2.57;;
12535;SDS011;6334;48.696;2.114;2023-03-14T08:00:27;10.73;;;2.67;;
12535;SDS011;6334;48.696;2.114;2023-03-14T08:02:58;7.43;;;2.67;;
12535;SDS011;6334;48.696;2.114;2023-03-14T08:05:28;8.27;;;2.53;;
12535;SDS011;6334;48.696;2.114;2023-03-14T08:07:59;9.23;;;3.17;;
12535;SDS011;6334;48.696;2.114;2023-03-14T08:10:29;8.07;;;2.57;;
12535;SDS011;6334;48.696;2.114;2023-03-14T08:13:00;9.00;;;2.93;;
12535;SDS011;6334;48.696;2.114;2023-03-14T08:15:30;6.07;;;2.40;;
12535;SDS011;6334;48.696;2.114;2023-03-14T08:18:01;4.83;;;2.30;;
12535;SDS011;6334;48.696;2.114;2023-03-14T08:20:31;7.17;;;2.50;;
12535;SDS011;6334;48.696;2.114;2023-03-14T08:23:02;6.43;;;2.17;;
12535;SDS011;6334;48.696;2.114;2023-03-14T08:25:32;9.23;;;2.90;;
12535;SDS011;6334;48.696;2.114;2023-03-14T08:28:02;6.33;;;2.77;;
12535;SDS011;6334;48.696;2.114;2023-03-14T08:30:33;7.23;;;2.93;;
12535;SDS011;6334;48.696;2.114;2023-03-14T08:33:03;7.70;;;2.67;;
12535;SDS011;6334;48.696;2.114;2023-03-14T08:35:34;7.43;;;2.10;;
12535;SDS011;6334;48.696;2.114;2023-03-14T08:38:04;6.23;;;2.20;;
12535;SDS011;6334;48.696;2.114;2023-03-14T08:40:35;9.27;;;2.97;;
12535;SDS011;6334;48.696;2.114;2023-03-14T08:43:05;8.70;;;3.00;;
12535;SDS011;6334;48.696;2.114;2023-03-14T08:45:36;7.70;;;2.57;;
12535;SDS011;6334;48.696;2.114;2023-03-14T08:48:06;6.07;;;2.47;;
12535;SDS011;6334;48.696;2.114;2023-03-14T08:50:38;7.53;;;2.73;;
12535;SDS011;6334;48.696;2.114;2023-03-14T08:53:08;6.53;;;2.20;;
12535;SDS011;6334;48.696;2.114;2023-03-14T08:55:39;8.77;;;2.60;;
12535;SDS011;6334;48.696;2.114;2023-03-14T08:58:09;7.40;;;2.70;;
12535;SDS011;6334;48.696;2.114;2023-03-14T09:00:39;10.93;;;2.37;;
12535;SDS011;6334;48.696;2.114;2023-03-14T09:03:11;5.27;;;2.00;;
12535;SDS011;6334;48.696;2.114;2023-03-14T09:05:42;6.17;;;2.53;;
12535;SDS011;6334;48.696;2.114;2023-03-14T09:08:12;12.00;;;2.80;;
12535;SDS011;6334;48.696;2.114;2023-03-14T09:10:42;8.07;;;2.47;;
12535;SDS011;6334;48.696;2.114;2023-03-14T09:13:13;8.60;;;2.80;;
12535;SDS011;6334;48.696;2.114;2023-03-14T09:15:43;8.60;;;2.80;;
12535;SDS011;6334;48.696;2.114;2023-03-14T09:18:14;6.20;;;2.17;;
12535;SDS011;6334;48.696;2.114;2023-03-14T09:20:44;7.57;;;2.17;;
12535;SDS011;6334;48.696;2.114;2023-03-14T09:23:15;8.83;;;2.43;;
12535;SDS011;6334;48.696;2.114;2023-03-14T09:25:45;9.43;;;2.37;;
12535;SDS011;6334;48.696;2.114;2023-03-14T09:28:16;9.60;;;3.03;;
12535;SDS011;6334;48.696;2.114;2023-03-14T09:30:46;6.90;;;2.70;;
12535;SDS011;6334;48.696;2.114;2023-03-14T09:33:17;6.53;;;2.50;;
12535;SDS011;6334;48.696;2.114;2023-03-14T09:35:47;3.63;;;1.90;;
12535;SDS011;6334;48.696;2.114;2023-03-14T09:38:17;6.30;;;2.43;;
12535;SDS011;6334;48.696;2.114;2023-03-14T09:40:48;4.00;;;2.00;;
12535;SDS011;6334;48.696;2.114;2023-03-14T09:43:18;2.90;;;1.73;;
12535;SDS011;6334;48.696;2.114;2023-03-14T09:45:50;5.97;;;2.00;;
12535;SDS011;6334;48.696;2.114;2023-03-14T09:48:21;5.60;;;1.93;;
12535;SDS011;6334;48.696;2.114;2023-03-14T09:50:51;5.30;;;1.83;;
12535;SDS011;6334;48.696;2.114;2023-03-14T09:53:23;7.50;;;1.90;;
12535;SDS011;6334;48.696;2.114;2023-03-14T09:55:52;6.67;;;1.87;;
12535;SDS011;6334;48.696;2.114;2023-03-14T09:58:23;4.00;;;1.70;;
12535;SDS011;6334;48.696;2.114;2023-03-14T10:00:54;3.83;;;1.83;;
12535;SDS011;6334;48.696;2.114;2023-03-14T10:03:25;6.13;;;1.97;;
12535;SDS011;6334;48.696;2.114;2023-03-14T10:05:59;4.07;;;1.80;;
12535;SDS011;6334;48.696;2.114;2023-03-14T10:08:30;5.47;;;1.47;;
12535;SDS011;6334;48.696;2.114;2023-03-14T10:11:00;5.00;;;1.27;;
12535;SDS011;6334;48.696;2.114;2023-03-14T10:13:31;3.67;;;1.47;;
12535;SDS011;6334;48.696;2.114;2023-03-14T10:16:02;4.90;;;1.77;;
12535;SDS011;6334;48.696;2.114;2023-03-14T10:18:35;6.37;;;2.63;;
12535;SDS011;6334;48.696;2.114;2023-03-14T10:21:07;2.83;;;1.77;;
12535;SDS011;6334;48.696;2.114;2023-03-14T10:23:36;7.27;;;1.83;;
12535;SDS011;6334;48.696;2.114;2023-03-14T10:26:15;4.27;;;1.67;;
12535;SDS011;6334;48.696;2.114;2023-03-14T10:28:46;5.40;;;2.07;;
12535;SDS011;6334;48.696;2.114;2023-03-14T10:31:16;5.17;;;2.10;;
12535;SDS011;6334;48.696;2.114;2023-03-14T10:34:00;6.37;;;1.77;;
12535;SDS011;6334;48.696;2.114;2023-03-14T10:36:29;7.43;;;2.10;;
12535;SDS011;6334;48.696;2.114;2023-03-14T10:39:15;5.67;;;1.70;;
12535;SDS011;6334;48.696;2.114;2023-03-14T10:42:01;5.30;;;1.77;;
12535;SDS011;6334;48.696;2.114;2023-03-14T10:44:27;6.40;;;1.80;;
12535;SDS011;6334;48.696;2.114;2023-03-14T10:47:01;4.93;;;1.90;;
12535;SDS011;6334;48.696;2.114;2023-03-14T10:49:32;4.40;;;1.90;;
12535;SDS011;6334;48.696;2.114;2023-03-14T10:52:02;2.30;;;1.30;;
12535;SDS011;6334;48.696;2.114;2023-03-14T10:54:46;4.60;;;1.60;;
12535;SDS011;6334;48.696;2.114;2023-03-14T10:57:13;6.00;;;2.47;;
12535;SDS011;6334;48.696;2.114;2023-03-14T10:59:43;2.13;;;1.27;;
12535;SDS011;6334;48.696;2.114;2023-03-14T11:07:44;5.57;;;1.87;;
12535;SDS011;6334;48.696;2.114;2023-03-14T11:10:34;2.97;;;1.60;;
12535;SDS011;6334;48.696;2.114;2023-03-14T11:12:53;3.60;;;1.80;;
12535;SDS011;6334;48.696;2.114;2023-03-14T11:15:41;3.37;;;1.40;;
12535;SDS011;6334;48.696;2.114;2023-03-14T11:21:08;2.10;;;1.10;;
12535;SDS011;6334;48.696;2.114;2023-03-14T11:29:40;2.97;;;1.47;;
12535;SDS011;6334;48.696;2.114;2023-03-14T11:35:21;5.43;;;1.43;;
12535;SDS011;6334;48.696;2.114;2023-03-14T11:37:54;3.30;;;1.47;;
12535;SDS011;6334;48.696;2.114;2023-03-14T11:40:26;3.77;;;1.83;;
12535;SDS011;6334;48.696;2.114;2023-03-14T11:43:11;3.83;;;1.60;;
12535;SDS011;6334;48.696;2.114;2023-03-14T11:45:41;2.27;;;1.30;;
12535;SDS011;6334;48.696;2.114;2023-03-14T11:48:16;2.33;;;1.43;;
12535;SDS011;6334;48.696;2.114;2023-03-14T11:50:51;2.43;;;1.43;;
12535;SDS011;6334;48.696;2.114;2023-03-14T11:53:22;5.37;;;1.50;;
12535;SDS011;6334;48.696;2.114;2023-03-14T11:56:14;6.47;;;1.83;;
12535;SDS011;6334;48.696;2.114;2023-03-14T11:58:39;3.83;;;1.40;;
12535;SDS011;6334;48.696;2.114;2023-03-14T12:01:10;3.83;;;1.40;;
12535;SDS011;6334;48.696;2.114;2023-03-14T12:03:45;7.60;;;2.30;;
12535;SDS011;6334;48.696;2.114;2023-03-14T12:06:19;1.63;;;1.13;;
12535;SDS011;6334;48.696;2.114;2023-03-14T12:08:52;2.30;;;1.50;;
12535;SDS011;6334;48.696;2.114;2023-03-14T12:11:33;2.57;;;1.43;;
12535;SDS011;6334;48.696;2.114;2023-03-14T12:14:15;4.53;;;1.87;;
12535;SDS011;6334;48.696;2.114;2023-03-14T12:16:38;5.43;;;1.97;;
12535;SDS011;6334;48.696;2.114;2023-03-14T12:19:14;3.37;;;1.30;;
12535;SDS011;6334;48.696;2.114;2023-03-14T12:21:47;4.77;;;1.83;;
12535;SDS011;6334;48.696;2.114;2023-03-14T12:24:22;3.67;;;1.60;;
12535;SDS011;6334;48.696;2.114;2023-03-14T12:26:56;3.47;;;1.80;;
12535;SDS011;6334;48.696;2.114;2023-03-14T12:29:23;6.23;;;1.97;;
12535;SDS011;6334;48.696;2.114;2023-03-14T12:34:33;5.13;;;2.07;;
12535;SDS011;6334;48.696;2.114;2023-03-14T12:43:00;4.63;;;1.60;;
12535;SDS011;6334;48.696;2.114;2023-03-14T12:45:29;4.53;;;1.60;;
12535;SDS011;6334;48.696;2.114;2023-03-14T12:51:02;6.93;;;2.27;;
12535;SDS011;6334;48.696;2.114;2023-03-14T12:59:33;8.73;;;2.40;;
12535;SDS011;6334;48.696;2.114;2023-03-14T13:07:28;2.70;;;1.83;;
12535;SDS011;6334;48.696;2.114;2023-03-14T13:09:55;4.33;;;1.60;;
12535;SDS011;6334;48.696;2.114;2023-03-14T13:12:34;3.57;;;1.50;;
12535;SDS011;6334;48.696;2.114;2023-03-14T13:15:00;4.17;;;1.30;;
12535;SDS011;6334;48.696;2.114;2023-03-14T13:17:32;4.20;;;1.63;;
12535;SDS011;6334;48.696;2.114;2023-03-14T13:20:18;4.87;;;1.83;;
12535;SDS011;6334;48.696;2.114;2023-03-14T13:22:47;5.77;;;1.90;;
12535;SDS011;6334;48.696;2.114;2023-03-14T13:25:16;4.40;;;1.60;;
12535;SDS011;6334;48.696;2.114;2023-03-14T13:27:47;5.33;;;2.27;;
12535;SDS011;6334;48.696;2.114;2023-03-14T13:32:54;4.60;;;2.17;;
12535;SDS011;6334;48.696;2.114;2023-03-14T13:35:27;4.90;;;2.03;;
12535;SDS011;6334;48.696;2.114;2023-03-14T13:37:58;6.23;;;2.07;;
12535;SDS011;6334;48.696;2.114;2023-03-14T13:40:31;5.57;;;1.77;;
12535;SDS011;6334;48.696;2.114;2023-03-14T13:43:11;4.63;;;1.70;;
12535;SDS011;6334;48.696;2.114;2023-03-14T13:45:47;7.17;;;1.93;;
12535;SDS011;6334;48.696;2.114;2023-03-14T13:48:17;3.83;;;1.50;;
12535;SDS011;6334;48.696;2.114;2023-03-14T13:50:55;1.90;;;1.37;;
12535;SDS011;6334;48.696;2.114;2023-03-14T13:53:25;5.20;;;1.23;;
12535;SDS011;6334;48.696;2.114;2023-03-14T13:55:55;1.67;;;1.20;;
12535;SDS011;6334;48.696;2.114;2023-03-14T13:58:26;1.37;;;0.90;;
12535;SDS011;6334;48.696;2.114;2023-03-14T14:03:33;3.17;;;1.07;;
12535;SDS011;6334;48.696;2.114;2023-03-14T14:06:10;2.30;;;1.30;;
12535;SDS011;6334;48.696;2.114;2023-03-14T14:08:33;2.63;;;1.50;;
12535;SDS011;6334;48.696;2.114;2023-03-14T14:11:04;3.07;;;0.90;;
12535;SDS011;6334;48.696;2.114;2023-03-14T14:13:34;1.70;;;1.20;;
12535;SDS011;6334;48.696;2.114;2023-03-14T14:16:04;2.40;;;1.13;;
12535;SDS011;6334;48.696;2.114;2023-03-14T14:18:35;4.17;;;0.97;;
12535;SDS011;6334;48.696;2.114;2023-03-14T14:21:05;3.80;;;1.30;;
12535;SDS011;6334;48.696;2.114;2023-03-14T14:23:36;2.93;;;0.97;;
12535;SDS011;6334;48.696;2.114;2023-03-14T14:26:06;2.27;;;1.20;;
12535;SDS011;6334;48.696;2.114;2023-03-14T14:28:37;5.80;;;1.43;;
12535;SDS011;6334;48.696;2.114;2023-03-14T14:33:55;2.70;;;0.90;;
12535;SDS011;6334;48.696;2.114;2023-03-14T14:38:59;5.03;;;2.23;;
12535;SDS011;6334;48.696;2.114;2023-03-14T14:41:31;4.30;;;1.40;;
12535;SDS011;6334;48.696;2.114;2023-03-14T14:44:03;3.10;;;1.70;;
12535;SDS011;6334;48.696;2.114;2023-03-14T14:46:31;7.57;;;2.53;;
12535;SDS011;6334;48.696;2.114;2023-03-14T14:49:03;2.20;;;1.20;;
12535;SDS011;6334;48.696;2.114;2023-03-14T14:51:33;3.07;;;1.03;;
12535;SDS011;6334;48.696;2.114;2023-03-14T14:54:10;2.53;;;1.33;;
12535;SDS011;6334;48.696;2.114;2023-03-14T14:56:45;2.97;;;1.27;;
12535;SDS011;6334;48.696;2.114;2023-03-14T14:59:29;5.00;;;1.30;;
12535;SDS011;6334;48.696;2.114;2023-03-14T15:01:54;2.57;;;1.17;;
12535;SDS011;6334;48.696;2.114;2023-03-14T15:04:22;2.57;;;1.10;;
12535;SDS011;6334;48.696;2.114;2023-03-14T15:06:52;3.70;;;1.40;;
12535;SDS011;6334;48.696;2.114;2023-03-14T15:09:23;4.10;;;1.20;;
12535;SDS011;6334;48.696;2.114;2023-03-14T15:11:53;2.43;;;1.10;;
12535;SDS011;6334;48.696;2.114;2023-03-14T15:14:24;2.43;;;0.90;;
12535;SDS011;6334;48.696;2.114;2023-03-14T15:16:54;3.13;;;1.73;;
12535;SDS011;6334;48.696;2.114;2023-03-14T15:19:25;1.87;;;1.40;;
12535;SDS011;6334;48.696;2.114;2023-03-14T15:21:55;1.33;;;0.90;;
12535;SDS011;6334;48.696;2.114;2023-03-14T15:24:25;2.10;;;0.93;;
12535;SDS011;6334;48.696;2.114;2023-03-14T15:26:56;1.80;;;1.07;;
12535;SDS011;6334;48.696;2.114;2023-03-14T15:29:26;1.87;;;1.27;;
12535;SDS011;6334;48.696;2.114;2023-03-14T15:31:58;2.40;;;0.80;;
12535;SDS011;6334;48.696;2.114;2023-03-14T15:34:28;3.07;;;1.00;;
12535;SDS011;6334;48.696;2.114;2023-03-14T15:36:59;4.07;;;1.37;;
12535;SDS011;6334;48.696;2.114;2023-03-14T15:39:29;1.07;;;0.80;;
12535;SDS011;6334;48.696;2.114;2023-03-14T15:42:00;1.27;;;0.77;;
12535;SDS011;6334;48.696;2.114;2023-03-14T15:44:30;2.40;;;0.90;;
12535;SDS011;6334;48.696;2.114;2023-03-14T15:47:01;2.50;;;1.00;;
12535;SDS011;6334;48.696;2.114;2023-03-14T15:49:31;1.03;;;0.70;;
12535;SDS011;6334;48.696;2.114;2023-03-14T15:52:01;1.10;;;0.60;;
12535;SDS011;6334;48.696;2.114;2023-03-14T15:54:32;0.70;;;0.70;;
12535;SDS011;6334;48.696;2.114;2023-03-14T15:57:02;3.63;;;1.00;;
12535;SDS011;6334;48.696;2.114;2023-03-14T15:59:33;3.37;;;0.97;;
12535;SDS011;6334;48.696;2.114;2023-03-14T16:02:03;1.37;;;1.03;;
12535;SDS011;6334;48.696;2.114;2023-03-14T16:04:34;1.90;;;0.90;;
12535;SDS011;6334;48.696;2.114;2023-03-14T16:07:04;2.13;;;0.90;;
12535;SDS011;6334;48.696;2.114;2023-03-14T16:09:35;2.07;;;1.03;;
12535;SDS011;6334;48.696;2.114;2023-03-14T16:12:05;1.40;;;1.17;;
12535;SDS011;6334;48.696;2.114;2023-03-14T16:14:35;2.20;;;1.00;;
12535;SDS011;6334;48.696;2.114;2023-03-14T16:17:06;2.47;;;1.20;;
12535;SDS011;6334;48.696;2.114;2023-03-14T16:19:37;0.80;;;0.80;;